sensor_id;sensor_type;location;lat;lon;timestamp;P1;P2;P0
65783;PMS5003;52532;53.358;-1.488;2022-09-27T00:00:14;7.4;5.6;
65783;PMS5003;52532;53.358;-1.488;2022-09-27T00:03:17;7.0;5.0;
65783;PMS5003;52532;53.358;-1.488;2022-09-27T00:06:21;3.6;2.9;
65783;PMS5003;52532;53.358;-1.488;2022-09-27T00:09:27;12.8;10.0;
65783;PMS5003;52532;53.358;-1.488;2022-09-27T00:12:30;13.0;12.1;
65783;PMS5003;52532;53.358;-1.488;2022-09-27T00:15:33;7.8;6.7;
65783;PMS5003;52532;53.358;-1.488;2022-09-27T00:18:36;81.9;70.6;
65783;PMS5003;52532;53.358;-1.488;2022-09-27T00:21:39;103.9;92.6;
65783;PMS5003;52532;53.358;-1.488;2022-09-27T00:24:43;30.3;23.5;
65783;PMS5003;52532;53.358;-1.488;2022-09-27T00:27:45;92.1;80.4;
65783;PMS5003;52532;53.358;-1.488;2022-09-27T00:30:48;80.8;70.2;
65783;PMS5003;52532;53.358;-1.488;2022-09-27T00:33:52;75.8;72.3;
65783;PMS5003;52532;53.358;-1.488;2022-09-27T00:36:55;60.5;53.8;
65783;PMS5003;52532;53.358;-1.488;2022-09-27T00:39:58;142.6;128.9;
65783;PMS5003;52532;53.358;-1.488;2022-09-27T00:43:01;116.5;108.3;
65783;PMS5003;52532;53.358;-1.488;2022-09-27T00:46:07;88.2;81.6;
65783;PMS5003;52532;53.358;-1.488;2022-09-27T00:49:10;144.7;131.2;
65783;PMS5003;52532;53.358;-1.488;2022-09-27T00:52:20;119.0;109.4;
65783;PMS5003;52532;53.358;-1.488;2022-09-27T00:55:27;6.9;6.0;
65783;PMS5003;52532;53.358;-1.488;2022-09-27T00:58:36;9.4;7.7;
65783;PMS5003;52532;53.358;-1.488;2022-09-27T01:01:43;10.6;8.5;
65783;PMS5003;52532;53.358;-1.488;2022-09-27T01:04:47;8.4;6.6;
65783;PMS5003;52532;53.358;-1.488;2022-09-27T01:07:51;22.4;20.2;
65783;PMS5003;52532;53.358;-1.488;2022-09-27T01:11:01;27.3;26.0;
65783;PMS5003;52532;53.358;-1.488;2022-09-27T01:14:19;14.1;11.2;
65783;PMS5003;52532;53.358;-1.488;2022-09-27T01:17:33;7.8;6.9;
65783;PMS5003;52532;53.358;-1.488;2022-09-27T01:20:54;8.1;7.6;
65783;PMS5003;52532;53.358;-1.488;2022-09-27T01:24:19;8.6;8.4;
65783;PMS5003;52532;53.358;-1.488;2022-09-27T01:27:44;3.3;3.3;
65783;PMS5003;52532;53.358;-1.488;2022-09-27T01:31:30;9.2;7.3;
65783;PMS5003;52532;53.358;-1.488;2022-09-27T01:34:40;18.9;16.6;
65783;PMS5003;52532;53.358;-1.488;2022-09-27T01:37:50;13.5;12.0;
65783;PMS5003;52532;53.358;-1.488;2022-09-27T01:41:03;99.5;88.4;
65783;PMS5003;52532;53.358;-1.488;2022-09-27T01:44:11;111.7;106.6;
65783;PMS5003;52532;53.358;-1.488;2022-09-27T01:47:20;33.7;31.9;
65783;PMS5003;52532;53.358;-1.488;2022-09-27T01:50:26;23.1;21.0;
65783;PMS5003;52532;53.358;-1.488;2022-09-27T01:53:34;73.9;67.4;
65783;PMS5003;52532;53.358;-1.488;2022-09-27T01:56:41;91.4;85.1;
65783;PMS5003;52532;53.358;-1.488;2022-09-27T01:59:48;143.5;131.2;
65783;PMS5003;52532;53.358;-1.488;2022-09-27T02:02:56;132.4;121.7;
65783;PMS5003;52532;53.358;-1.488;2022-09-27T02:06:03;40.7;36.0;
65783;PMS5003;52532;53.358;-1.488;2022-09-27T02:09:12;81.5;69.8;
65783;PMS5003;52532;53.358;-1.488;2022-09-27T02:12:19;60.2;54.4;
65783;PMS5003;52532;53.358;-1.488;2022-09-27T02:15:26;36.0;31.2;
65783;PMS5003;52532;53.358;-1.488;2022-09-27T02:18:39;26.2;20.6;
65783;PMS5003;52532;53.358;-1.488;2022-09-27T02:21:52;42.0;37.8;
65783;PMS5003;52532;53.358;-1.488;2022-09-27T02:25:03;4.6;4.6;
65783;PMS5003;52532;53.358;-1.488;2022-09-27T02:28:17;1.4;1.4;
65783;PMS5003;52532;53.358;-1.488;2022-09-27T02:31:26;8.7;7.7;
65783;PMS5003;52532;53.358;-1.488;2022-09-27T02:34:29;15.8;15.0;
65783;PMS5003;52532;53.358;-1.488;2022-09-27T02:37:35;2.5;2.1;
65783;PMS5003;52532;53.358;-1.488;2022-09-27T02:40:41;13.1;12.8;
65783;PMS5003;52532;53.358;-1.488;2022-09-27T02:43:46;12.1;11.1;
65783;PMS5003;52532;53.358;-1.488;2022-09-27T02:46:55;9.3;7.1;
65783;PMS5003;52532;53.358;-1.488;2022-09-27T02:50:15;18.1;17.8;
65783;PMS5003;52532;53.358;-1.488;2022-09-27T02:53:40;9.9;8.2;
65783;PMS5003;52532;53.358;-1.488;2022-09-27T02:56:59;30.5;30.5;
65783;PMS5003;52532;53.358;-1.488;2022-09-27T03:00:09;17.0;17.0;
65783;PMS5003;52532;53.358;-1.488;2022-09-27T03:03:19;6.9;6.2;
65783;PMS5003;52532;53.358;-1.488;2022-09-27T03:06:27;6.0;5.8;
65783;PMS5003;52532;53.358;-1.488;2022-09-27T03:09:39;5.9;5.9;
65783;PMS5003;52532;53.358;-1.488;2022-09-27T03:12:43;4.7;3.7;
65783;PMS5003;52532;53.358;-1.488;2022-09-27T03:18:44;3.1;1.9;
65783;PMS5003;52532;53.358;-1.488;2022-09-27T03:21:47;1.6;1.1;
65783;PMS5003;52532;53.358;-1.488;2022-09-27T03:24:49;1.2;1.2;
65783;PMS5003;52532;53.358;-1.488;2022-09-27T03:27:53;0.9;0.9;
65783;PMS5003;52532;53.358;-1.488;2022-09-27T03:30:56;1.7;1.2;
65783;PMS5003;52532;53.358;-1.488;2022-09-27T03:33:59;2.0;1.0;
65783;PMS5003;52532;53.358;-1.488;2022-09-27T03:37:01;9.8;9.8;
65783;PMS5003;52532;53.358;-1.488;2022-09-27T03:40:05;12.5;11.3;
65783;PMS5003;52532;53.358;-1.488;2022-09-27T03:43:08;12.0;11.4;
65783;PMS5003;52532;53.358;-1.488;2022-09-27T03:46:11;7.7;7.7;
65783;PMS5003;52532;53.358;-1.488;2022-09-27T03:49:14;24.4;24.0;
65783;PMS5003;52532;53.358;-1.488;2022-09-27T03:52:17;28.0;26.9;
65783;PMS5003;52532;53.358;-1.488;2022-09-27T03:55:20;24.0;18.5;
65783;PMS5003;52532;53.358;-1.488;2022-09-27T03:58:23;10.1;5.1;
65783;PMS5003;52532;53.358;-1.488;2022-09-27T04:01:26;14.0;6.2;
65783;PMS5003;52532;53.358;-1.488;2022-09-27T04:04:29;4.8;2.0;
65783;PMS5003;52532;53.358;-1.488;2022-09-27T04:07:32;2.0;2.0;
65783;PMS5003;52532;53.358;-1.488;2022-09-27T04:10:35;3.7;2.6;
65783;PMS5003;52532;53.358;-1.488;2022-09-27T04:13:38;3.9;3.5;
65783;PMS5003;52532;53.358;-1.488;2022-09-27T04:16:40;5.6;3.9;
65783;PMS5003;52532;53.358;-1.488;2022-09-27T04:19:43;3.2;2.1;
65783;PMS5003;52532;53.358;-1.488;2022-09-27T04:22:46;3.7;2.0;
65783;PMS5003;52532;53.358;-1.488;2022-09-27T04:25:49;5.6;4.5;
65783;PMS5003;52532;53.358;-1.488;2022-09-27T04:28:52;3.5;2.8;
65783;PMS5003;52532;53.358;-1.488;2022-09-27T04:31:55;2.0;2.0;
65783;PMS5003;52532;53.358;-1.488;2022-09-27T04:34:57;0.8;0.8;
65783;PMS5003;52532;53.358;-1.488;2022-09-27T04:40:10;1.3;1.0;
65783;PMS5003;52532;53.358;-1.488;2022-09-27T04:43:13;2.0;1.5;
65783;PMS5003;52532;53.358;-1.488;2022-09-27T04:46:16;1.7;1.7;
65783;PMS5003;52532;53.358;-1.488;2022-09-27T04:49:21;1.8;1.1;
65783;PMS5003;52532;53.358;-1.488;2022-09-27T04:52:24;25.5;22.1;
65783;PMS5003;52532;53.358;-1.488;2022-09-27T04:55:27;36.9;31.1;
65783;PMS5003;52532;53.358;-1.488;2022-09-27T04:58:30;1.2;1.0;
65783;PMS5003;52532;53.358;-1.488;2022-09-27T05:01:34;0.6;0.3;
65783;PMS5003;52532;53.358;-1.488;2022-09-27T05:04:37;3.2;0.5;
65783;PMS5003;52532;53.358;-1.488;2022-09-27T05:07:40;1.2;1.2;
65783;PMS5003;52532;53.358;-1.488;2022-09-27T05:10:43;0.4;0.4;
65783;PMS5003;52532;53.358;-1.488;2022-09-27T05:13:46;0.4;0.3;
65783;PMS5003;52532;53.358;-1.488;2022-09-27T05:16:49;0.0;0.0;
65783;PMS5003;52532;53.358;-1.488;2022-09-27T05:19:53;0.3;0.0;
65783;PMS5003;52532;53.358;-1.488;2022-09-27T05:22:56;0.8;0.4;
65783;PMS5003;52532;53.358;-1.488;2022-09-27T05:26:02;0.5;0.1;
65783;PMS5003;52532;53.358;-1.488;2022-09-27T05:29:05;1.9;0.6;
65783;PMS5003;52532;53.358;-1.488;2022-09-27T05:32:08;1.1;1.1;
65783;PMS5003;52532;53.358;-1.488;2022-09-27T05:35:11;1.7;1.7;
65783;PMS5003;52532;53.358;-1.488;2022-09-27T05:38:14;2.2;0.8;
65783;PMS5003;52532;53.358;-1.488;2022-09-27T05:41:17;1.4;0.9;
65783;PMS5003;52532;53.358;-1.488;2022-09-27T05:44:19;1.2;0.5;
65783;PMS5003;52532;53.358;-1.488;2022-09-27T05:47:22;2.2;2.1;
65783;PMS5003;52532;53.358;-1.488;2022-09-27T05:50:25;2.2;1.1;
65783;PMS5003;52532;53.358;-1.488;2022-09-27T05:53:28;1.6;1.2;
65783;PMS5003;52532;53.358;-1.488;2022-09-27T05:56:33;0.2;0.2;
65783;PMS5003;52532;53.358;-1.488;2022-09-27T05:59:35;2.2;0.8;
65783;PMS5003;52532;53.358;-1.488;2022-09-27T06:05:50;0.9;0.9;
65783;PMS5003;52532;53.358;-1.488;2022-09-27T06:08:54;0.6;0.6;
65783;PMS5003;52532;53.358;-1.488;2022-09-27T06:11:56;0.2;0.2;
65783;PMS5003;52532;53.358;-1.488;2022-09-27T06:14:59;1.7;0.0;
65783;PMS5003;52532;53.358;-1.488;2022-09-27T06:18:03;1.1;0.4;
65783;PMS5003;52532;53.358;-1.488;2022-09-27T06:21:07;1.5;1.0;
65783;PMS5003;52532;53.358;-1.488;2022-09-27T06:24:10;1.4;0.8;
65783;PMS5003;52532;53.358;-1.488;2022-09-27T06:27:13;0.9;0.9;
65783;PMS5003;52532;53.358;-1.488;2022-09-27T06:30:16;0.9;0.9;
65783;PMS5003;52532;53.358;-1.488;2022-09-27T06:33:19;0.2;0.2;
65783;PMS5003;52532;53.358;-1.488;2022-09-27T06:36:22;1.7;1.7;
65783;PMS5003;52532;53.358;-1.488;2022-09-27T06:39:24;2.0;0.9;
65783;PMS5003;52532;53.358;-1.488;2022-09-27T06:42:28;2.1;1.2;
65783;PMS5003;52532;53.358;-1.488;2022-09-27T06:45:31;2.0;1.6;
65783;PMS5003;52532;53.358;-1.488;2022-09-27T06:48:36;2.2;1.3;
65783;PMS5003;52532;53.358;-1.488;2022-09-27T06:51:44;1.6;0.8;
65783;PMS5003;52532;53.358;-1.488;2022-09-27T06:54:51;1.2;0.6;
65783;PMS5003;52532;53.358;-1.488;2022-09-27T06:57:54;0.9;0.9;
65783;PMS5003;52532;53.358;-1.488;2022-09-27T07:03:07;1.4;1.0;
65783;PMS5003;52532;53.358;-1.488;2022-09-27T07:06:15;1.6;1.1;
65783;PMS5003;52532;53.358;-1.488;2022-09-27T07:09:21;1.6;0.8;
65783;PMS5003;52532;53.358;-1.488;2022-09-27T07:12:23;2.0;1.0;
65783;PMS5003;52532;53.358;-1.488;2022-09-27T07:15:26;0.8;0.8;
65783;PMS5003;52532;53.358;-1.488;2022-09-27T07:18:29;1.1;1.1;
65783;PMS5003;52532;53.358;-1.488;2022-09-27T07:21:32;1.3;1.3;
65783;PMS5003;52532;53.358;-1.488;2022-09-27T07:24:35;1.1;1.1;
65783;PMS5003;52532;53.358;-1.488;2022-09-27T07:27:38;1.1;1.1;
65783;PMS5003;52532;53.358;-1.488;2022-09-27T07:30:41;2.6;0.9;
65783;PMS5003;52532;53.358;-1.488;2022-09-27T07:33:45;2.8;0.8;
65783;PMS5003;52532;53.358;-1.488;2022-09-27T07:36:48;1.1;0.9;
65783;PMS5003;52532;53.358;-1.488;2022-09-27T07:39:51;1.5;1.5;
65783;PMS5003;52532;53.358;-1.488;2022-09-27T07:42:54;1.1;1.0;
65783;PMS5003;52532;53.358;-1.488;2022-09-27T07:45:58;0.6;0.6;
65783;PMS5003;52532;53.358;-1.488;2022-09-27T07:49:01;1.6;1.6;
65783;PMS5003;52532;53.358;-1.488;2022-09-27T07:52:04;2.6;1.8;
65783;PMS5003;52532;53.358;-1.488;2022-09-27T07:55:07;1.9;1.9;
65783;PMS5003;52532;53.358;-1.488;2022-09-27T07:58:11;2.1;1.4;
65783;PMS5003;52532;53.358;-1.488;2022-09-27T08:01:14;2.5;1.5;
65783;PMS5003;52532;53.358;-1.488;2022-09-27T08:04:17;0.7;0.7;
65783;PMS5003;52532;53.358;-1.488;2022-09-27T08:07:20;2.3;2.3;
65783;PMS5003;52532;53.358;-1.488;2022-09-27T08:10:22;1.8;1.3;
65783;PMS5003;52532;53.358;-1.488;2022-09-27T08:13:28;1.3;1.2;
65783;PMS5003;52532;53.358;-1.488;2022-09-27T08:16:32;1.0;0.4;
65783;PMS5003;52532;53.358;-1.488;2022-09-27T08:19:35;1.7;1.2;
65783;PMS5003;52532;53.358;-1.488;2022-09-27T08:22:39;1.8;1.2;
65783;PMS5003;52532;53.358;-1.488;2022-09-27T08:25:42;3.3;2.7;
65783;PMS5003;52532;53.358;-1.488;2022-09-27T08:28:45;1.8;1.5;
65783;PMS5003;52532;53.358;-1.488;2022-09-27T08:31:49;5.2;1.7;
65783;PMS5003;52532;53.358;-1.488;2022-09-27T08:34:52;1.8;0.9;
65783;PMS5003;52532;53.358;-1.488;2022-09-27T08:37:56;0.9;0.9;
65783;PMS5003;52532;53.358;-1.488;2022-09-27T08:41:03;1.5;1.5;
65783;PMS5003;52532;53.358;-1.488;2022-09-27T08:44:12;2.9;1.3;
65783;PMS5003;52532;53.358;-1.488;2022-09-27T08:47:22;2.8;2.8;
65783;PMS5003;52532;53.358;-1.488;2022-09-27T08:50:29;3.9;2.7;
65783;PMS5003;52532;53.358;-1.488;2022-09-27T08:53:36;6.2;2.0;
65783;PMS5003;52532;53.358;-1.488;2022-09-27T08:56:42;3.6;2.3;
65783;PMS5003;52532;53.358;-1.488;2022-09-27T08:59:46;3.0;1.9;
65783;PMS5003;52532;53.358;-1.488;2022-09-27T09:02:55;2.6;2.2;
65783;PMS5003;52532;53.358;-1.488;2022-09-27T09:06:03;2.1;1.8;
65783;PMS5003;52532;53.358;-1.488;2022-09-27T09:09:15;1.9;1.2;
65783;PMS5003;52532;53.358;-1.488;2022-09-27T09:12:30;1.8;1.3;
65783;PMS5003;52532;53.358;-1.488;2022-09-27T09:15:52;5.5;0.9;
65783;PMS5003;52532;53.358;-1.488;2022-09-27T09:19:07;2.9;1.2;
65783;PMS5003;52532;53.358;-1.488;2022-09-27T09:22:26;2.3;0.5;
65783;PMS5003;52532;53.358;-1.488;2022-09-27T09:25:40;2.3;1.7;
65783;PMS5003;52532;53.358;-1.488;2022-09-27T09:28:57;2.0;1.9;
65783;PMS5003;52532;53.358;-1.488;2022-09-27T09:32:13;2.0;2.0;
65783;PMS5003;52532;53.358;-1.488;2022-09-27T09:35:29;1.5;1.5;
65783;PMS5003;52532;53.358;-1.488;2022-09-27T09:38:39;1.4;0.8;
65783;PMS5003;52532;53.358;-1.488;2022-09-27T09:41:50;2.0;1.5;
65783;PMS5003;52532;53.358;-1.488;2022-09-27T09:45:03;1.3;1.3;
65783;PMS5003;52532;53.358;-1.488;2022-09-27T09:48:18;2.6;2.6;
65783;PMS5003;52532;53.358;-1.488;2022-09-27T09:51:31;1.5;1.5;
65783;PMS5003;52532;53.358;-1.488;2022-09-27T09:54:40;1.3;1.2;
65783;PMS5003;52532;53.358;-1.488;2022-09-27T09:57:51;1.7;1.1;
65783;PMS5003;52532;53.358;-1.488;2022-09-27T10:01:08;1.1;1.0;
65783;PMS5003;52532;53.358;-1.488;2022-09-27T10:04:18;1.4;1.4;
65783;PMS5003;52532;53.358;-1.488;2022-09-27T10:07:24;3.2;2.4;
65783;PMS5003;52532;53.358;-1.488;2022-09-27T10:10:29;4.1;2.9;
65783;PMS5003;52532;53.358;-1.488;2022-09-27T10:13:33;4.0;2.4;
65783;PMS5003;52532;53.358;-1.488;2022-09-27T10:16:37;2.1;1.8;
65783;PMS5003;52532;53.358;-1.488;2022-09-27T10:19:43;2.6;1.2;
65783;PMS5003;52532;53.358;-1.488;2022-09-27T10:22:50;2.8;1.7;
65783;PMS5003;52532;53.358;-1.488;2022-09-27T10:25:56;0.9;0.9;
65783;PMS5003;52532;53.358;-1.488;2022-09-27T10:29:13;2.1;2.1;
65783;PMS5003;52532;53.358;-1.488;2022-09-27T10:32:26;1.6;1.6;
65783;PMS5003;52532;53.358;-1.488;2022-09-27T10:35:35;1.5;1.5;
65783;PMS5003;52532;53.358;-1.488;2022-09-27T10:38:40;2.2;2.2;
65783;PMS5003;52532;53.358;-1.488;2022-09-27T10:41:53;1.8;1.8;
65783;PMS5003;52532;53.358;-1.488;2022-09-27T10:44:56;2.0;1.8;
65783;PMS5003;52532;53.358;-1.488;2022-09-27T10:48:00;3.8;2.3;
65783;PMS5003;52532;53.358;-1.488;2022-09-27T10:51:04;3.1;2.3;
65783;PMS5003;52532;53.358;-1.488;2022-09-27T10:57:29;1.0;1.0;
65783;PMS5003;52532;53.358;-1.488;2022-09-27T11:00:33;1.6;1.3;
65783;PMS5003;52532;53.358;-1.488;2022-09-27T11:03:38;2.7;1.4;
65783;PMS5003;52532;53.358;-1.488;2022-09-27T11:06:50;1.9;1.9;
65783;PMS5003;52532;53.358;-1.488;2022-09-27T11:09:54;1.9;1.9;
65783;PMS5003;52532;53.358;-1.488;2022-09-27T11:13:05;1.3;1.3;
65783;PMS5003;52532;53.358;-1.488;2022-09-27T11:16:18;1.2;1.2;
65783;PMS5003;52532;53.358;-1.488;2022-09-27T11:19:33;2.2;2.2;
65783;PMS5003;52532;53.358;-1.488;2022-09-27T11:22:51;3.0;2.0;
65783;PMS5003;52532;53.358;-1.488;2022-09-27T11:26:16;1.7;1.3;
65783;PMS5003;52532;53.358;-1.488;2022-09-27T11:29:34;2.0;1.3;
65783;PMS5003;52532;53.358;-1.488;2022-09-27T11:32:56;1.6;1.2;
65783;PMS5003;52532;53.358;-1.488;2022-09-27T11:39:16;1.4;1.4;
65783;PMS5003;52532;53.358;-1.488;2022-09-27T11:42:38;3.2;2.6;
65783;PMS5003;52532;53.358;-1.488;2022-09-27T11:45:53;4.4;3.3;
65783;PMS5003;52532;53.358;-1.488;2022-09-27T11:49:09;10.5;5.4;
65783;PMS5003;52532;53.358;-1.488;2022-09-27T11:52:29;121.2;110.0;
65783;PMS5003;52532;53.358;-1.488;2022-09-27T11:55:42;143.4;134.3;
65783;PMS5003;52532;53.358;-1.488;2022-09-27T11:58:59;47.6;39.9;
65783;PMS5003;52532;53.358;-1.488;2022-09-27T12:02:19;62.1;50.3;
65783;PMS5003;52532;53.358;-1.488;2022-09-27T12:05:42;69.3;59.5;
65783;PMS5003;52532;53.358;-1.488;2022-09-27T12:08:59;50.2;42.3;
65783;PMS5003;52532;53.358;-1.488;2022-09-27T12:12:08;83.1;71.0;
65783;PMS5003;52532;53.358;-1.488;2022-09-27T12:15:18;50.6;39.3;
65783;PMS5003;52532;53.358;-1.488;2022-09-27T12:18:24;11.1;7.4;
65783;PMS5003;52532;53.358;-1.488;2022-09-27T12:21:30;11.0;8.8;
65783;PMS5003;52532;53.358;-1.488;2022-09-27T12:24:34;14.2;4.5;
65783;PMS5003;52532;53.358;-1.488;2022-09-27T12:27:39;28.4;21.3;
65783;PMS5003;52532;53.358;-1.488;2022-09-27T12:30:49;100.1;92.2;
65783;PMS5003;52532;53.358;-1.488;2022-09-27T12:34:03;122.9;110.8;
65783;PMS5003;52532;53.358;-1.488;2022-09-27T12:37:13;146.0;138.5;
65783;PMS5003;52532;53.358;-1.488;2022-09-27T12:40:21;102.5;96.8;
65783;PMS5003;52532;53.358;-1.488;2022-09-27T12:43:29;43.6;33.6;
65783;PMS5003;52532;53.358;-1.488;2022-09-27T12:46:36;38.9;31.3;
65783;PMS5003;52532;53.358;-1.488;2022-09-27T12:49:47;3.0;2.7;
65783;PMS5003;52532;53.358;-1.488;2022-09-27T12:53:00;5.6;3.9;
65783;PMS5003;52532;53.358;-1.488;2022-09-27T12:56:08;6.9;4.8;
65783;PMS5003;52532;53.358;-1.488;2022-09-27T12:59:27;3.9;3.4;
65783;PMS5003;52532;53.358;-1.488;2022-09-27T13:03:19;113.9;101.6;
65783;PMS5003;52532;53.358;-1.488;2022-09-27T13:06:36;62.8;55.6;
65783;PMS5003;52532;53.358;-1.488;2022-09-27T13:09:53;4.5;2.2;
65783;PMS5003;52532;53.358;-1.488;2022-09-27T13:13:12;3.4;3.4;
65783;PMS5003;52532;53.358;-1.488;2022-09-27T13:16:18;3.4;3.4;
65783;PMS5003;52532;53.358;-1.488;2022-09-27T13:19:36;3.8;3.7;
65783;PMS5003;52532;53.358;-1.488;2022-09-27T13:22:43;6.7;2.3;
65783;PMS5003;52532;53.358;-1.488;2022-09-27T13:25:47;120.5;112.6;
65783;PMS5003;52532;53.358;-1.488;2022-09-27T13:29:00;106.2;97.9;
65783;PMS5003;52532;53.358;-1.488;2022-09-27T13:35:22;66.2;53.5;
65783;PMS5003;52532;53.358;-1.488;2022-09-27T13:38:27;49.9;42.3;
65783;PMS5003;52532;53.358;-1.488;2022-09-27T13:41:32;23.9;18.0;
65783;PMS5003;52532;53.358;-1.488;2022-09-27T13:45:01;139.4;131.2;
65783;PMS5003;52532;53.358;-1.488;2022-09-27T13:48:18;121.0;109.7;
65783;PMS5003;52532;53.358;-1.488;2022-09-27T13:51:30;85.4;78.3;
65783;PMS5003;52532;53.358;-1.488;2022-09-27T13:54:38;150.0;138.3;
65783;PMS5003;52532;53.358;-1.488;2022-09-27T13:57:51;102.7;91.6;
65783;PMS5003;52532;53.358;-1.488;2022-09-27T14:00:59;68.0;60.4;
65783;PMS5003;52532;53.358;-1.488;2022-09-27T14:04:09;87.8;77.9;
65783;PMS5003;52532;53.358;-1.488;2022-09-27T14:07:20;145.2;135.3;
65783;PMS5003;52532;53.358;-1.488;2022-09-27T14:10:26;115.5;108.7;
65783;PMS5003;52532;53.358;-1.488;2022-09-27T14:13:31;112.1;105.7;
65783;PMS5003;52532;53.358;-1.488;2022-09-27T14:16:35;131.3;121.6;
65783;PMS5003;52532;53.358;-1.488;2022-09-27T14:19:43;140.8;129.6;
65783;PMS5003;52532;53.358;-1.488;2022-09-27T14:22:51;125.6;119.0;
65783;PMS5003;52532;53.358;-1.488;2022-09-27T14:25:55;107.1;91.6;
65783;PMS5003;52532;53.358;-1.488;2022-09-27T14:28:59;123.4;107.9;
65783;PMS5003;52532;53.358;-1.488;2022-09-27T14:32:02;149.9;143.6;
65783;PMS5003;52532;53.358;-1.488;2022-09-27T14:35:08;145.4;130.1;
65783;PMS5003;52532;53.358;-1.488;2022-09-27T14:40:24;136.9;124.1;
65783;PMS5003;52532;53.358;-1.488;2022-09-27T14:43:30;126.8;118.7;
65783;PMS5003;52532;53.358;-1.488;2022-09-27T14:46:33;128.9;116.4;
65783;PMS5003;52532;53.358;-1.488;2022-09-27T14:52:27;127.7;114.1;
65783;PMS5003;52532;53.358;-1.488;2022-09-27T14:55:33;111.9;100.4;
65783;PMS5003;52532;53.358;-1.488;2022-09-27T14:58:37;127.0;114.1;
65783;PMS5003;52532;53.358;-1.488;2022-09-27T15:01:46;132.9;121.6;
65783;PMS5003;52532;53.358;-1.488;2022-09-27T15:04:51;127.2;117.1;
65783;PMS5003;52532;53.358;-1.488;2022-09-27T15:07:55;134.8;122.4;
65783;PMS5003;52532;53.358;-1.488;2022-09-27T15:11:02;128.4;118.1;
65783;PMS5003;52532;53.358;-1.488;2022-09-27T15:14:07;123.4;116.2;
65783;PMS5003;52532;53.358;-1.488;2022-09-27T15:17:15;130.2;118.9;
65783;PMS5003;52532;53.358;-1.488;2022-09-27T15:20:23;133.9;122.3;
65783;PMS5003;52532;53.358;-1.488;2022-09-27T15:23:29;126.7;118.5;
65783;PMS5003;52532;53.358;-1.488;2022-09-27T15:26:37;121.1;109.9;
65783;PMS5003;52532;53.358;-1.488;2022-09-27T15:29:46;124.6;113.3;
65783;PMS5003;52532;53.358;-1.488;2022-09-27T15:32:52;115.4;106.9;
65783;PMS5003;52532;53.358;-1.488;2022-09-27T15:35:58;93.3;84.0;
65783;PMS5003;52532;53.358;-1.488;2022-09-27T15:39:05;80.7;68.3;
65783;PMS5003;52532;53.358;-1.488;2022-09-27T15:42:11;84.9;73.5;
65783;PMS5003;52532;53.358;-1.488;2022-09-27T15:45:26;89.7;81.4;
65783;PMS5003;52532;53.358;-1.488;2022-09-27T15:48:31;117.8;106.6;
65783;PMS5003;52532;53.358;-1.488;2022-09-27T15:51:37;193.2;191.1;
65783;PMS5003;52532;53.358;-1.488;2022-09-27T15:54:41;110.1;104.8;
65783;PMS5003;52532;53.358;-1.488;2022-09-27T15:57:44;125.5;115.2;
65783;PMS5003;52532;53.358;-1.488;2022-09-27T16:00:53;104.9;94.9;
65783;PMS5003;52532;53.358;-1.488;2022-09-27T16:04:06;96.4;89.7;
65783;PMS5003;52532;53.358;-1.488;2022-09-27T16:07:09;146.6;139.9;
65783;PMS5003;52532;53.358;-1.488;2022-09-27T16:10:16;154.6;147.3;
65783;PMS5003;52532;53.358;-1.488;2022-09-27T16:13:20;113.4;110.2;
65783;PMS5003;52532;53.358;-1.488;2022-09-27T16:16:24;155.3;150.6;
65783;PMS5003;52532;53.358;-1.488;2022-09-27T16:19:27;161.8;156.3;
65783;PMS5003;52532;53.358;-1.488;2022-09-27T16:22:30;58.7;48.3;
65783;PMS5003;52532;53.358;-1.488;2022-09-27T16:25:33;76.3;64.5;
65783;PMS5003;52532;53.358;-1.488;2022-09-27T16:28:36;117.2;106.7;
65783;PMS5003;52532;53.358;-1.488;2022-09-27T16:31:39;144.2;137.3;
65783;PMS5003;52532;53.358;-1.488;2022-09-27T16:34:43;81.9;75.1;
65783;PMS5003;52532;53.358;-1.488;2022-09-27T16:37:47;153.8;145.0;
65783;PMS5003;52532;53.358;-1.488;2022-09-27T16:40:50;143.1;133.6;
65783;PMS5003;52532;53.358;-1.488;2022-09-27T16:43:54;87.8;83.7;
65783;PMS5003;52532;53.358;-1.488;2022-09-27T16:47:00;147.4;141.3;
65783;PMS5003;52532;53.358;-1.488;2022-09-27T16:50:10;105.0;93.6;
65783;PMS5003;52532;53.358;-1.488;2022-09-27T16:55:24;110.2;98.1;
65783;PMS5003;52532;53.358;-1.488;2022-09-27T16:58:29;190.5;185.8;
65783;PMS5003;52532;53.358;-1.488;2022-09-27T17:01:32;145.1;135.8;
65783;PMS5003;52532;53.358;-1.488;2022-09-27T17:04:35;67.3;58.3;
65783;PMS5003;52532;53.358;-1.488;2022-09-27T17:07:38;81.1;69.0;
65783;PMS5003;52532;53.358;-1.488;2022-09-27T17:10:43;101.9;89.4;
65783;PMS5003;52532;53.358;-1.488;2022-09-27T17:13:46;110.3;100.7;
65783;PMS5003;52532;53.358;-1.488;2022-09-27T17:16:50;153.5;147.8;
65783;PMS5003;52532;53.358;-1.488;2022-09-27T17:19:59;137.0;131.3;
65783;PMS5003;52532;53.358;-1.488;2022-09-27T17:23:02;105.8;95.4;
65783;PMS5003;52532;53.358;-1.488;2022-09-27T17:26:05;53.2;46.8;
65783;PMS5003;52532;53.358;-1.488;2022-09-27T17:29:10;44.9;33.4;
65783;PMS5003;52532;53.358;-1.488;2022-09-27T17:32:14;53.8;44.3;
65783;PMS5003;52532;53.358;-1.488;2022-09-27T17:35:17;89.9;83.0;
65783;PMS5003;52532;53.358;-1.488;2022-09-27T17:38:20;129.0;120.8;
65783;PMS5003;52532;53.358;-1.488;2022-09-27T17:41:23;86.7;75.6;
65783;PMS5003;52532;53.358;-1.488;2022-09-27T17:44:27;89.7;83.7;
65783;PMS5003;52532;53.358;-1.488;2022-09-27T17:47:31;86.2;74.3;
65783;PMS5003;52532;53.358;-1.488;2022-09-27T17:52:49;78.1;66.0;
65783;PMS5003;52532;53.358;-1.488;2022-09-27T17:55:59;87.2;79.1;
65783;PMS5003;52532;53.358;-1.488;2022-09-27T17:59:02;108.0;100.6;
65783;PMS5003;52532;53.358;-1.488;2022-09-27T18:02:06;46.5;35.0;
65783;PMS5003;52532;53.358;-1.488;2022-09-27T18:05:10;73.6;63.9;
65783;PMS5003;52532;53.358;-1.488;2022-09-27T18:08:13;160.9;158.5;
65783;PMS5003;52532;53.358;-1.488;2022-09-27T18:11:17;121.5;114.4;
65783;PMS5003;52532;53.358;-1.488;2022-09-27T18:14:22;105.0;96.8;
65783;PMS5003;52532;53.358;-1.488;2022-09-27T18:17:32;80.4;74.0;
65783;PMS5003;52532;53.358;-1.488;2022-09-27T18:20:36;114.9;104.5;
65783;PMS5003;52532;53.358;-1.488;2022-09-27T18:23:39;113.1;106.4;
65783;PMS5003;52532;53.358;-1.488;2022-09-27T18:26:43;53.9;47.6;
65783;PMS5003;52532;53.358;-1.488;2022-09-27T18:29:49;73.6;61.7;
65783;PMS5003;52532;53.358;-1.488;2022-09-27T18:32:51;108.4;96.4;
65783;PMS5003;52532;53.358;-1.488;2022-09-27T18:35:54;44.6;35.8;
65783;PMS5003;52532;53.358;-1.488;2022-09-27T18:38:58;28.1;17.5;
65783;PMS5003;52532;53.358;-1.488;2022-09-27T18:42:07;27.3;16.3;
65783;PMS5003;52532;53.358;-1.488;2022-09-27T18:45:19;21.3;12.7;
65783;PMS5003;52532;53.358;-1.488;2022-09-27T18:48:28;15.0;9.5;
65783;PMS5003;52532;53.358;-1.488;2022-09-27T18:51:33;5.9;5.9;
65783;PMS5003;52532;53.358;-1.488;2022-09-27T18:54:40;22.4;15.5;
65783;PMS5003;52532;53.358;-1.488;2022-09-27T18:57:44;34.5;27.5;
65783;PMS5003;52532;53.358;-1.488;2022-09-27T19:00:48;20.1;15.5;
65783;PMS5003;52532;53.358;-1.488;2022-09-27T19:03:51;12.7;11.5;
65783;PMS5003;52532;53.358;-1.488;2022-09-27T19:06:59;24.4;18.5;
65783;PMS5003;52532;53.358;-1.488;2022-09-27T19:10:08;20.9;15.5;
65783;PMS5003;52532;53.358;-1.488;2022-09-27T19:13:11;30.4;22.1;
65783;PMS5003;52532;53.358;-1.488;2022-09-27T19:16:14;10.8;9.1;
65783;PMS5003;52532;53.358;-1.488;2022-09-27T19:19:17;9.7;8.1;
65783;PMS5003;52532;53.358;-1.488;2022-09-27T19:22:21;6.0;5.4;
65783;PMS5003;52532;53.358;-1.488;2022-09-27T19:25:24;3.4;3.4;
65783;PMS5003;52532;53.358;-1.488;2022-09-27T19:28:27;5.1;5.1;
65783;PMS5003;52532;53.358;-1.488;2022-09-27T19:31:34;8.4;8.4;
65783;PMS5003;52532;53.358;-1.488;2022-09-27T19:34:37;11.9;7.1;
65783;PMS5003;52532;53.358;-1.488;2022-09-27T19:37:40;10.4;9.7;
65783;PMS5003;52532;53.358;-1.488;2022-09-27T19:40:51;4.3;2.7;
65783;PMS5003;52532;53.358;-1.488;2022-09-27T19:43:55;4.0;4.0;
65783;PMS5003;52532;53.358;-1.488;2022-09-27T19:46:58;6.3;6.1;